• Join FlightAware (Why Join?)
  • Login
  • US Flag GB Flag 
00:02 EST


 

Airport Tracker/Info


-or-


 

Live Flight TrackerFlight Track Log ✈ PDT4226 ✈ 25-Oct-2013 ✈ KPHL - KBGM

Flight Track Log - Related Links

Times and Time Zones

All times are in EDT time to prevent confusion due to time zone crossing. See the PDT4226 flight status page for this flight to view local times or setup timezone preferences in your user account.

Time Position Orientation Groundspeed Altitude Reporting Facility
EDT Latitude Longitude Course Direction KTS MPH feet Rate Location/Type
12:16 39.9000 -75.2333 311° West 121 139 700  Level Philadelphia TRACON
12:17 39.9167 -75.2833 294° West 138 159 2,500 1,261 Climbing Philadelphia TRACON
12:18 39.9333 -75.3333 294° West 143 165 3,600 1,250 Climbing Philadelphia TRACON
12:19 40.0975 -75.3098 323° Northwest  Level Estimated
12:19 39.9333 -75.3833 270° West 137 158 5,000  Level Philadelphia TRACON
12:20 40.1725 -75.3328 311° West  Level Estimated
12:20 39.9500 -75.4167 303° West 134 154 6,200  Level Philadelphia TRACON
12:21 40.2476 -75.3560 311° West  Level Estimated
12:21 39.9333 -75.4667 247° West 147 169 7,300  Level Philadelphia TRACON
12:22 39.9500 -75.4833 323° Northwest 129 148 8,400 837 Climbing Philadelphia TRACON
12:23 39.9978 -75.5019 343° North 146 168 9,100 744 Climbing New York Center
12:24 40.0350 -75.5100 351° North 156 180 10,000 500 Climbing New York Center
12:25 40.0864 -75.5269 346° North 163 188 10,100 200 Climbing New York Center
12:26 40.1339 -75.5383 350° North 176 203 10,400 800 Climbing New York Center
12:27 40.1856 -75.5500 350° North 176 203 11,700 800 Climbing New York Center
12:28 40.2289 -75.5611 349° North 176 203 12,000 150 Climbing New York Center
12:29 40.2661 -75.6183 310° West 177 204 12,000  Level New York Center
12:30 40.3131 -75.6461 336° Northwest 182 209 12,000  Level New York Center
12:31 40.3686 -75.6581 351° North 189 217 12,000  Level New York Center
12:32 40.4206 -75.6644 355° North 202 232 12,000  Level New York Center
12:33 40.4764 -75.6711 355° North 202 232 12,000  Level New York Center
12:34 40.5408 -75.6786 355° North 202 232 12,000  Level New York Center
12:35 40.5964 -75.6961 347° North 202 232 12,000  Level New York Center
12:36 40.6544 -75.7058 353° North 202 232 12,000  Level New York Center
12:37 40.7042 -75.7067 359° North 202 232 12,000  Level New York Center
12:38 40.7619 -75.7217 349° North 197 227 12,000  Level New York Center
12:39 40.8219 -75.7344 351° North 197 227 12,000  Level New York Center
12:40 40.8778 -75.7439 353° North 202 232 12,000  Level New York Center
12:41 40.9356 -75.7564 351° North 202 232 12,000  Level New York Center
12:42 40.9853 -75.7656 352° North 202 232 12,000 -350 Level New York Center
12:43 41.0494 -75.7758 353° North 202 232 11,300 -950 Descending New York Center
12:44 41.1092 -75.7883 351° North 202 232 10,100 -650 Descending New York Center
12:45 41.1650 -75.7981 353° North 202 232 10,000 -50 Descending New York Center
12:46 41.2211 -75.8022 357° North 196 226 10,000  Level New York Center
12:47 41.2683 -75.8169 347° North 196 226 10,000  Level New York Center
12:48 41.3264 -75.8239 355° North 196 226 10,000  Level New York Center
12:49 41.3825 -75.8308 355° North 196 226 10,000 -250 Level New York Center
12:50 41.4381 -75.8461 348° North 196 226 9,500 -850 Descending New York Center
12:51 41.4958 -75.8533 355° North 196 226 8,300 -750 Descending New York Center
12:52 41.5539 -75.8606 355° North 201 231 8,000 -150 Descending New York Center
12:53 41.6097 -75.8731 350° North 201 231 8,000  Level New York Center
12:54 41.6717 -75.8833 353° North 201 231 8,000  Level New York Center
12:55 41.7275 -75.8958 351° North 201 231 8,000 -400 Level New York Center
12:56 41.7750 -75.9053 352° North 201 231 7,200 -950 Descending New York Center
12:57 41.8308 -75.9122 355° North 201 231 6,100 -1,250 Descending New York Center
12:58 41.8883 -75.9278 349° North 193 222 4,700 -1,050 Descending New York Center
12:59 41.9442 -75.9378 352° North 200 230 4,000 -350 Descending New York Center
13:00 41.9978 -75.9503 350° North 200 230 4,000 -50 Level New York Center
13:01 42.0583 -75.9439 North 195 224 3,900 -450 Descending New York Center
13:02 42.1044 -75.9392 North 193 222 3,100 -500 Descending New York Center
13:03 42.1483 -75.9369 North 169 194 2,900 -450 Descending New York Center
13:04 42.1786 -75.9589 332° Northwest 143 165 2,200 -350 Descending New York Center
13:05 42.2228 -75.9483 10° North 143 165 2,200  Level New York Center